createdAt,value
2023-05-11T00:00:32.407Z,6.25
2023-05-11T00:01:35.769Z,6.24
2023-05-11T00:02:37.907Z,6.23
2023-05-11T00:03:40.095Z,6.21
2023-05-11T00:04:42.783Z,6.18
2023-05-11T00:05:48.187Z,6.20
2023-05-11T00:06:50.416Z,6.18
2023-05-11T00:07:52.979Z,6.14
2023-05-11T00:08:55.425Z,6.13
2023-05-11T00:09:57.720Z,6.13
2023-05-11T00:11:00.059Z,6.14
2023-05-11T00:12:02.628Z,6.13
2023-05-11T00:13:04.841Z,6.14
2023-05-11T00:14:07.004Z,6.12
2023-05-11T00:15:09.676Z,6.12
2023-05-11T00:16:12.042Z,6.12
2023-05-11T00:17:14.340Z,6.15
2023-05-11T00:18:16.408Z,6.10
2023-05-11T00:19:18.698Z,6.09
2023-05-11T00:20:21.032Z,6.11
2023-05-11T00:21:23.409Z,6.08
2023-05-11T00:22:25.676Z,6.03
2023-05-11T00:23:28.168Z,6.07
2023-05-11T00:24:30.428Z,6.06
2023-05-11T00:25:32.441Z,6.07
2023-05-11T00:26:34.668Z,6.06
2023-05-11T00:27:37.034Z,6.06
2023-05-11T00:28:39.229Z,6.05
2023-05-11T00:29:41.503Z,6.03
2023-05-11T00:30:43.908Z,6.02
2023-05-11T00:31:46.578Z,5.99
2023-05-11T00:32:50.139Z,5.96
2023-05-11T00:33:53.318Z,5.93
2023-05-11T00:34:56.068Z,5.95
2023-05-11T00:35:59.264Z,5.90
2023-05-11T00:37:01.823Z,5.92
2023-05-11T00:38:04.018Z,5.91
2023-05-11T00:39:06.232Z,5.87
2023-05-11T00:40:09.256Z,5.88
2023-05-11T00:41:11.700Z,5.87
2023-05-11T00:42:14.005Z,5.87
2023-05-11T00:43:17.505Z,5.83
2023-05-11T00:44:19.607Z,5.88
2023-05-11T00:45:22.121Z,5.82
2023-05-11T00:46:24.439Z,5.82
2023-05-11T00:47:27.336Z,5.81
2023-05-11T00:48:29.700Z,5.80
2023-05-11T00:49:32.984Z,5.75
2023-05-11T00:50:35.413Z,5.75
2023-05-11T00:51:38.824Z,5.73
2023-05-11T00:52:41.474Z,5.68
2023-05-11T00:53:44.182Z,5.69
2023-05-11T00:54:47.365Z,5.66
2023-05-11T00:55:49.731Z,5.61
2023-05-11T00:56:52.377Z,5.62
2023-05-11T00:57:55.024Z,5.62
2023-05-11T00:58:57.883Z,5.57
2023-05-11T01:00:02.077Z,5.60
2023-05-11T01:01:05.131Z,5.58
2023-05-11T01:02:07.888Z,5.57
2023-05-11T01:03:10.731Z,5.58
2023-05-11T01:04:13.294Z,5.62
2023-05-11T01:05:15.961Z,5.59
2023-05-11T01:06:24.816Z,5.58
2023-05-11T01:07:50.516Z,5.60
2023-05-11T01:10:15.167Z,5.70
2023-05-11T01:12:51.728Z,5.62
2023-05-11T01:15:24.314Z,5.53
2023-05-11T01:16:31.160Z,5.34
2023-05-11T01:17:43.183Z,5.36
2023-05-11T01:20:13.887Z,5.56
2023-05-11T01:21:17.347Z,5.36
2023-05-11T01:23:51.230Z,5.53
2023-05-11T01:26:35.949Z,5.55
2023-05-11T01:28:01.920Z,5.38
2023-05-11T01:29:30.213Z,5.38
2023-05-11T01:31:53.690Z,5.56
2023-05-11T01:32:59.143Z,5.37
2023-05-11T01:34:04.934Z,5.37
2023-05-11T01:36:26.027Z,5.51
2023-05-11T01:37:31.915Z,5.33
2023-05-11T01:38:37.710Z,5.38
2023-05-11T01:39:46.894Z,5.36
2023-05-11T01:40:52.749Z,5.36
2023-05-11T01:41:57.859Z,5.42
2023-05-11T01:44:13.132Z,5.57
2023-05-11T01:45:18.338Z,5.41
2023-05-11T01:46:24.492Z,5.44
2023-05-11T01:47:29.407Z,5.46
2023-05-11T01:48:35.089Z,5.50
2023-05-11T01:49:40.008Z,5.50
2023-05-11T01:50:43.728Z,5.50
2023-05-11T01:52:57.244Z,5.63
2023-05-11T01:54:01.895Z,5.49
2023-05-11T01:55:06.787Z,5.48
2023-05-11T01:56:13.731Z,5.48
2023-05-11T01:57:17.354Z,5.50
2023-05-11T01:58:22.911Z,5.49
2023-05-11T01:59:27.541Z,5.47
2023-05-11T02:00:32.603Z,5.47
2023-05-11T02:01:35.083Z,5.47
2023-05-11T02:02:37.600Z,5.46
2023-05-11T02:03:42.900Z,5.49
2023-05-11T02:04:46.474Z,5.48
2023-05-11T02:05:51.015Z,5.45
2023-05-11T02:06:56.278Z,5.47
2023-05-11T02:08:01.516Z,5.44
2023-05-11T02:09:06.759Z,5.44
2023-05-11T02:10:11.238Z,5.41
2023-05-11T02:11:15.388Z,5.42
2023-05-11T02:12:19.654Z,5.41
2023-05-11T02:13:24.086Z,5.41
2023-05-11T02:14:28.981Z,5.39
2023-05-11T02:15:33.398Z,5.38
2023-05-11T02:16:37.135Z,5.39
2023-05-11T02:17:40.482Z,5.40
2023-05-11T02:18:43.933Z,5.38
2023-05-11T02:19:47.438Z,5.38
2023-05-11T02:20:51.165Z,5.36
2023-05-11T02:21:55.555Z,5.39
2023-05-11T02:22:59.466Z,5.36
2023-05-11T02:24:04.878Z,5.31
2023-05-11T02:25:09.269Z,5.28
2023-05-11T02:26:14.267Z,5.28
2023-05-11T02:27:16.633Z,5.31
2023-05-11T02:28:19.613Z,5.30
2023-05-11T02:29:21.993Z,5.31
2023-05-11T02:30:28.385Z,5.30
2023-05-11T02:31:34.616Z,5.25
2023-05-11T02:32:41.008Z,5.24
2023-05-11T02:33:46.371Z,5.22
2023-05-11T02:36:20.447Z,5.37
2023-05-11T02:37:24.915Z,5.17
2023-05-11T02:38:33.714Z,5.16
2023-05-11T02:39:39.871Z,5.18
2023-05-11T02:40:48.872Z,5.17
2023-05-11T02:41:57.133Z,5.15
2023-05-11T02:43:12.650Z,5.13
2023-05-11T02:44:18.317Z,5.13
2023-05-11T02:45:22.840Z,5.17
2023-05-11T02:46:28.762Z,5.18
2023-05-11T02:47:34.890Z,5.16
2023-05-11T02:48:40.848Z,5.18
2023-05-11T02:49:46.460Z,5.19
2023-05-11T02:50:51.924Z,5.17
2023-05-11T02:51:55.755Z,5.15
2023-05-11T02:53:01.741Z,5.19
2023-05-11T02:54:07.736Z,5.20
2023-05-11T02:55:14.681Z,5.22
2023-05-11T02:56:18.034Z,5.22
2023-05-11T02:57:20.779Z,5.25
2023-05-11T02:58:23.181Z,5.23
2023-05-11T02:59:28.017Z,5.25
2023-05-11T03:00:32.414Z,5.29
2023-05-11T03:01:35.068Z,5.30
2023-05-11T03:02:37.580Z,5.31
2023-05-11T03:03:40.800Z,5.32
2023-05-11T03:04:43.550Z,5.31
2023-05-11T03:05:45.866Z,5.36
2023-05-11T03:06:48.260Z,5.36
2023-05-11T03:07:52.851Z,5.39
2023-05-11T03:08:55.237Z,5.35
2023-05-11T03:09:58.406Z,5.39
2023-05-11T03:11:02.495Z,5.38
2023-05-11T03:12:05.870Z,5.38
2023-05-11T03:13:09.416Z,5.36
2023-05-11T03:14:12.502Z,5.36
2023-05-11T03:15:15.386Z,5.39
2023-05-11T03:16:21.427Z,5.42
2023-05-11T03:17:26.165Z,5.44
2023-05-11T03:18:30.529Z,5.45
2023-05-11T03:19:33.367Z,5.47
2023-05-11T03:20:39.363Z,5.51
2023-05-11T03:21:42.222Z,5.54
2023-05-11T03:22:45.938Z,5.54
2023-05-11T03:23:49.406Z,5.57
2023-05-11T03:24:52.278Z,5.61
2023-05-11T03:25:55.712Z,5.63
2023-05-11T03:26:59.980Z,5.66
2023-05-11T03:28:04.507Z,5.69
2023-05-11T03:29:08.183Z,5.72
2023-05-11T03:30:13.781Z,5.76
2023-05-11T03:31:19.468Z,5.80
2023-05-11T03:32:21.888Z,5.85
2023-05-11T03:33:25.127Z,5.89
2023-05-11T03:34:27.610Z,5.94
2023-05-11T03:35:32.796Z,5.98
2023-05-11T03:36:37.763Z,6.02
2023-05-11T03:37:42.422Z,6.07
2023-05-11T03:38:46.830Z,6.12
2023-05-11T03:39:54.284Z,6.15
2023-05-11T03:40:57.933Z,6.21
2023-05-11T03:42:02.624Z,6.26
2023-05-11T03:43:08.247Z,6.28
2023-05-11T03:44:12.636Z,6.34
2023-05-11T03:45:18.555Z,6.38
2023-05-11T03:46:22.767Z,6.42
2023-05-11T03:47:29.166Z,6.46
2023-05-11T03:48:32.499Z,6.49
2023-05-11T03:49:38.363Z,6.54
2023-05-11T03:50:41.431Z,6.58
2023-05-11T03:51:44.794Z,6.63
2023-05-11T03:52:48.294Z,6.69
2023-05-11T03:53:50.626Z,6.73
2023-05-11T03:54:53.107Z,6.75
2023-05-11T03:55:55.409Z,6.80
2023-05-11T03:56:58.142Z,6.84
2023-05-11T03:58:01.752Z,6.87
2023-05-11T03:59:05.397Z,6.92
2023-05-11T04:00:10.800Z,6.96
2023-05-11T04:01:19.564Z,6.99
2023-05-11T04:02:22.022Z,7.04
2023-05-11T04:03:25.059Z,7.08
2023-05-11T04:04:29.521Z,7.12
2023-05-11T04:05:33.250Z,7.16
2023-05-11T04:06:37.268Z,7.19
2023-05-11T04:07:47.420Z,7.24
2023-05-11T04:08:49.703Z,7.26
2023-05-11T04:09:52.484Z,7.30
2023-05-11T04:10:54.706Z,7.32
2023-05-11T04:11:57.509Z,7.35
2023-05-11T04:13:00.010Z,7.37
2023-05-11T04:14:02.419Z,7.40
2023-05-11T04:15:05.100Z,7.43
2023-05-11T04:16:07.922Z,7.44
2023-05-11T04:17:10.276Z,7.45
2023-05-11T04:18:12.607Z,7.46
2023-05-11T04:19:14.933Z,7.50
2023-05-11T04:20:17.536Z,7.52
2023-05-11T04:21:20.107Z,7.56
2023-05-11T04:22:23.042Z,7.59
2023-05-11T04:23:25.371Z,7.61
2023-05-11T04:24:27.466Z,7.64
2023-05-11T04:25:29.696Z,7.67
2023-05-11T04:26:32.693Z,7.68
2023-05-11T04:27:35.800Z,7.70
2023-05-11T04:28:39.375Z,7.72
2023-05-11T04:29:41.743Z,7.76
2023-05-11T04:30:44.041Z,7.78
2023-05-11T04:31:46.371Z,7.80
2023-05-11T04:32:48.767Z,7.85
2023-05-11T04:33:51.030Z,7.87
2023-05-11T04:34:54.205Z,7.91
2023-05-11T04:35:58.221Z,7.92
2023-05-11T04:37:01.176Z,7.95
2023-05-11T04:38:03.835Z,7.97
2023-05-11T04:39:08.147Z,7.99
2023-05-11T04:40:13.092Z,8.03
2023-05-11T04:41:17.082Z,8.04
2023-05-11T04:42:20.322Z,8.06
2023-05-11T04:43:24.360Z,8.10
2023-05-11T04:44:26.962Z,8.13
2023-05-11T04:45:29.591Z,8.15
2023-05-11T04:46:32.331Z,8.18
2023-05-11T04:47:34.686Z,8.21
2023-05-11T04:48:37.488Z,8.23
2023-05-11T04:49:39.994Z,8.28
2023-05-11T04:50:42.652Z,8.30
2023-05-11T04:51:45.725Z,8.32
2023-05-11T04:52:48.952Z,8.35
2023-05-11T04:53:52.397Z,8.37
2023-05-11T04:54:54.652Z,8.40
2023-05-11T04:55:57.926Z,8.43
2023-05-11T04:57:00.166Z,8.45
2023-05-11T04:58:02.449Z,8.48
2023-05-11T04:59:05.559Z,8.51
2023-05-11T05:00:09.232Z,8.54
2023-05-11T05:01:11.597Z,8.56
2023-05-11T05:02:15.063Z,8.59
2023-05-11T05:03:18.373Z,8.60
2023-05-11T05:04:21.384Z,8.63
2023-05-11T05:05:24.282Z,8.66
2023-05-11T05:06:26.585Z,8.68
2023-05-11T05:07:28.806Z,8.71
2023-05-11T05:08:31.532Z,8.74
2023-05-11T05:09:34.572Z,8.78
2023-05-11T05:10:36.808Z,8.81
2023-05-11T05:11:39.491Z,8.84
2023-05-11T05:12:41.769Z,8.87
2023-05-11T05:13:44.319Z,8.90
2023-05-11T05:14:47.194Z,8.93
2023-05-11T05:15:49.778Z,8.95
2023-05-11T05:16:52.326Z,8.99
2023-05-11T05:17:54.709Z,9.02
2023-05-11T05:18:57.888Z,9.05
2023-05-11T05:20:00.444Z,9.07
2023-05-11T05:21:02.755Z,9.11
2023-05-11T05:22:04.952Z,9.15
2023-05-11T05:23:07.267Z,9.19
2023-05-11T05:24:09.484Z,9.23
2023-05-11T05:25:11.799Z,9.27
2023-05-11T05:26:14.506Z,9.32
2023-05-11T05:27:16.823Z,9.35
2023-05-11T05:28:20.050Z,9.39
2023-05-11T05:29:22.688Z,9.42
2023-05-11T05:30:25.095Z,9.46
2023-05-11T05:31:27.450Z,9.49
2023-05-11T05:32:31.166Z,9.53
2023-05-11T05:33:34.496Z,9.58
2023-05-11T05:34:37.615Z,9.62
2023-05-11T05:35:39.934Z,9.66
2023-05-11T05:36:42.259Z,9.71
2023-05-11T05:37:49.199Z,9.75
2023-05-11T05:38:52.953Z,9.80
2023-05-11T05:39:58.248Z,9.83
2023-05-11T05:41:01.936Z,9.88
2023-05-11T05:42:08.182Z,9.93
2023-05-11T05:43:16.151Z,9.98
2023-05-11T05:44:20.479Z,10.03
2023-05-11T05:45:24.395Z,10.07
2023-05-11T05:46:27.433Z,10.10
2023-05-11T05:47:29.906Z,10.13
2023-05-11T05:48:36.172Z,10.18
2023-05-11T05:49:41.869Z,10.22
2023-05-11T05:50:48.877Z,10.26
2023-05-11T05:51:52.658Z,10.30
2023-05-11T05:52:58.226Z,10.35
2023-05-11T05:54:04.035Z,10.39
2023-05-11T05:55:11.960Z,10.43
2023-05-11T05:56:18.086Z,10.46
2023-05-11T05:57:22.396Z,10.50
2023-05-11T05:58:30.543Z,10.54
2023-05-11T05:59:34.093Z,10.58
2023-05-11T06:00:42.232Z,10.63
2023-05-11T06:01:45.100Z,10.70
2023-05-11T06:02:50.631Z,10.75
2023-05-11T06:03:59.021Z,10.81
2023-05-11T06:05:03.891Z,10.88
2023-05-11T06:06:10.921Z,10.93
2023-05-11T06:07:15.123Z,10.99
2023-05-11T06:08:17.332Z,11.03
2023-05-11T06:09:20.721Z,11.07
2023-05-11T06:10:23.496Z,11.11
2023-05-11T06:11:35.549Z,11.18
2023-05-11T06:12:40.071Z,11.20
2023-05-11T06:13:44.580Z,11.27
2023-05-11T06:14:46.850Z,11.33
2023-05-11T06:15:51.316Z,11.39
2023-05-11T06:16:57.769Z,11.44
2023-05-11T06:18:04.200Z,11.50
2023-05-11T06:19:10.044Z,11.56
2023-05-11T06:20:18.357Z,11.63
2023-05-11T06:21:24.579Z,11.69
2023-05-11T06:22:26.945Z,11.75
2023-05-11T06:23:31.959Z,11.82
2023-05-11T06:24:36.707Z,11.88
2023-05-11T06:25:41.859Z,11.93
2023-05-11T06:26:49.508Z,11.98
2023-05-11T06:27:54.625Z,12.01
2023-05-11T06:29:01.394Z,12.07
2023-05-11T06:30:07.546Z,12.13
2023-05-11T06:31:13.213Z,12.21
2023-05-11T06:32:18.210Z,12.26
2023-05-11T06:33:21.021Z,12.32
2023-05-11T06:34:24.140Z,12.38
2023-05-11T06:35:29.988Z,12.43
2023-05-11T06:36:33.494Z,12.48
2023-05-11T06:37:41.844Z,12.54
2023-05-11T06:38:45.444Z,12.56
2023-05-11T06:39:48.192Z,12.59
2023-05-11T06:40:56.795Z,12.62
2023-05-11T06:42:04.327Z,12.63
2023-05-11T06:43:08.651Z,12.64
2023-05-11T06:44:22.299Z,12.67
2023-05-11T06:45:27.523Z,12.67
2023-05-11T06:46:31.559Z,12.70
2023-05-11T06:47:35.136Z,12.69
2023-05-11T06:48:38.392Z,12.70
2023-05-11T06:49:47.600Z,12.73
2023-05-11T06:50:51.320Z,12.74
2023-05-11T06:51:56.316Z,12.77
2023-05-11T06:52:59.390Z,12.78
2023-05-11T06:54:07.512Z,12.80
2023-05-11T06:55:13.364Z,12.82
2023-05-11T06:57:29.176Z,12.93
2023-05-11T06:58:31.764Z,12.86
2023-05-11T06:59:34.080Z,12.86
2023-05-11T07:00:36.393Z,12.87
2023-05-11T07:01:38.703Z,12.89
2023-05-11T07:02:41.086Z,12.91
2023-05-11T07:03:43.690Z,12.93
2023-05-11T07:04:46.086Z,12.96
2023-05-11T07:05:48.293Z,12.98
2023-05-11T07:06:50.613Z,13.01
2023-05-11T07:07:52.953Z,13.04
2023-05-11T07:08:55.290Z,13.06
2023-05-11T07:09:57.947Z,13.12
2023-05-11T07:11:00.139Z,13.18
2023-05-11T07:12:02.564Z,13.23
2023-05-11T07:13:05.789Z,13.28
2023-05-11T07:14:08.097Z,13.32
2023-05-11T07:15:11.219Z,13.38
2023-05-11T07:16:14.063Z,13.42
2023-05-11T07:17:16.367Z,13.50
2023-05-11T07:18:18.609Z,13.57
2023-05-11T07:19:20.834Z,13.64
2023-05-11T07:20:23.210Z,13.69
2023-05-11T07:21:25.336Z,13.73
2023-05-11T07:22:27.696Z,13.77
2023-05-11T07:23:29.980Z,13.82
2023-05-11T07:24:32.868Z,13.89
2023-05-11T07:25:35.238Z,13.94
2023-05-11T07:26:37.426Z,13.99
2023-05-11T07:27:39.488Z,14.05
2023-05-11T07:28:41.773Z,14.09
2023-05-11T07:29:43.998Z,14.13
2023-05-11T07:30:47.255Z,14.18
2023-05-11T07:31:49.665Z,14.22
2023-05-11T07:32:52.050Z,14.25
2023-05-11T07:33:54.602Z,14.29
2023-05-11T07:34:57.044Z,14.32
2023-05-11T07:35:59.245Z,14.35
2023-05-11T07:37:01.509Z,14.39
2023-05-11T07:38:03.748Z,14.43
2023-05-11T07:39:06.098Z,14.47
2023-05-11T07:40:09.534Z,14.52
2023-05-11T07:41:12.777Z,14.55
2023-05-11T07:42:15.556Z,14.55
2023-05-11T07:43:18.388Z,14.57
2023-05-11T07:44:20.921Z,14.60
2023-05-11T07:45:23.190Z,14.62
2023-05-11T07:46:25.553Z,14.64
2023-05-11T07:47:27.797Z,14.66
2023-05-11T07:48:30.196Z,14.69
2023-05-11T07:49:42.936Z,14.71
2023-05-11T07:50:36.635Z,14.73
2023-05-11T07:51:39.026Z,14.76
2023-05-11T07:52:41.336Z,14.79
2023-05-11T07:53:43.528Z,14.81
2023-05-11T07:54:45.723Z,14.85
2023-05-11T07:55:48.733Z,14.90
2023-05-11T07:56:52.315Z,14.92
2023-05-11T07:57:54.880Z,14.95
2023-05-11T07:58:56.936Z,14.99
2023-05-11T07:59:59.615Z,15.01
2023-05-11T08:01:02.910Z,15.03
2023-05-11T08:02:07.356Z,15.00
2023-05-11T08:03:09.725Z,14.98
2023-05-11T08:04:11.950Z,14.96
2023-05-11T08:05:14.703Z,14.96
2023-05-11T08:06:17.186Z,14.95
2023-05-11T08:07:19.439Z,14.96
2023-05-11T08:08:21.627Z,14.99
2023-05-11T08:09:24.235Z,15.02
2023-05-11T08:10:26.844Z,15.05
2023-05-11T08:11:29.681Z,15.09
2023-05-11T08:12:32.388Z,15.15
2023-05-11T08:13:35.563Z,15.20
2023-05-11T08:14:37.836Z,15.28
2023-05-11T08:15:40.320Z,15.34
2023-05-11T08:16:42.554Z,15.43
2023-05-11T08:17:44.817Z,15.49
2023-05-11T08:18:47.159Z,15.51
2023-05-11T08:19:49.404Z,15.52
2023-05-11T08:20:51.893Z,15.51
2023-05-11T08:21:54.371Z,15.49
2023-05-11T08:22:56.966Z,15.48
2023-05-11T08:23:59.656Z,15.44
2023-05-11T08:25:02.243Z,15.42
2023-05-11T08:26:04.674Z,15.39
2023-05-11T08:27:06.817Z,15.37
2023-05-11T08:28:09.066Z,15.33
2023-05-11T08:29:11.787Z,15.31
2023-05-11T08:30:14.813Z,15.30
2023-05-11T08:31:18.623Z,15.27
2023-05-11T08:32:21.444Z,15.26
2023-05-11T08:34:28.778Z,15.23
2023-05-11T08:35:31.067Z,15.20
2023-05-11T08:36:33.973Z,15.20
2023-05-11T08:37:36.306Z,15.20
2023-05-11T08:38:39.354Z,15.20
2023-05-11T08:39:47.234Z,15.23
2023-05-11T08:40:45.778Z,15.29
2023-05-11T08:41:49.281Z,15.32
2023-05-11T08:42:56.293Z,15.36
2023-05-11T08:44:00.019Z,15.38
2023-05-11T08:45:04.727Z,15.38
2023-05-11T08:46:10.529Z,15.41
2023-05-11T08:48:18.454Z,15.42
2023-05-11T08:49:21.170Z,15.43
2023-05-11T08:50:23.797Z,15.41
2023-05-11T08:51:26.031Z,15.40
2023-05-11T08:52:28.209Z,15.40
2023-05-11T08:53:30.708Z,15.41
2023-05-11T08:54:32.854Z,15.39
2023-05-11T08:55:36.155Z,15.39
2023-05-11T08:56:41.254Z,15.42
2023-05-11T08:57:45.932Z,15.42
2023-05-11T08:58:49.968Z,15.44
2023-05-11T08:59:55.587Z,15.46
2023-05-11T09:00:58.853Z,15.50
2023-05-11T09:02:03.676Z,15.53
2023-05-11T09:03:06.262Z,15.57
2023-05-11T09:04:09.103Z,15.60
2023-05-11T09:05:13.100Z,15.67
2023-05-11T09:06:17.433Z,15.69
2023-05-11T09:07:23.661Z,15.71
2023-05-11T09:08:29.469Z,15.72
2023-05-11T09:09:31.781Z,15.75
2023-05-11T09:10:36.734Z,15.77
2023-05-11T09:11:39.455Z,15.81
2023-05-11T09:12:41.821Z,15.84
2023-05-11T09:13:44.256Z,15.84
2023-05-11T09:14:46.570Z,15.85
2023-05-11T09:15:48.833Z,15.86
2023-05-11T09:16:51.057Z,15.86
2023-05-11T09:17:53.319Z,15.85
2023-05-11T09:18:59.127Z,15.83
2023-05-11T09:20:06.387Z,15.82
2023-05-11T09:21:08.603Z,15.79
2023-05-11T09:22:10.806Z,15.76
2023-05-11T09:23:16.706Z,15.76
2023-05-11T09:24:20.715Z,15.74
2023-05-11T09:25:23.836Z,15.71
2023-05-11T09:26:26.963Z,15.70
2023-05-11T09:27:29.253Z,15.69
2023-05-11T09:28:35.880Z,15.67
2023-05-11T09:29:36.033Z,15.64
2023-05-11T09:30:38.281Z,15.65
2023-05-11T09:31:45.485Z,15.64
2023-05-11T09:34:20.222Z,15.75
2023-05-11T09:35:31.495Z,15.69
2023-05-11T09:36:33.977Z,15.74
2023-05-11T09:37:36.600Z,15.80
2023-05-11T09:38:38.762Z,15.88
2023-05-11T09:39:59.306Z,15.93
2023-05-11T09:40:56.009Z,15.99
2023-05-11T09:43:27.085Z,16.17
2023-05-11T09:44:32.412Z,16.06
2023-05-11T09:45:36.652Z,16.11
2023-05-11T09:46:43.561Z,16.13
2023-05-11T09:47:47.667Z,16.16
2023-05-11T09:48:59.709Z,16.16
2023-05-11T09:50:05.572Z,16.17
2023-05-11T09:51:07.804Z,16.16
2023-05-11T09:52:15.020Z,16.16
2023-05-11T09:53:17.392Z,16.17
2023-05-11T09:54:21.263Z,16.13
2023-05-11T09:55:24.057Z,16.11
2023-05-11T09:56:47.784Z,16.10
2023-05-11T09:57:59.471Z,16.08
2023-05-11T09:59:02.134Z,16.07
2023-05-11T10:00:08.550Z,16.03
2023-05-11T10:01:12.859Z,16.01
2023-05-11T10:02:26.754Z,16.01
2023-05-11T10:03:29.144Z,16.00
2023-05-11T10:04:32.820Z,16.00
2023-05-11T10:05:36.690Z,16.00
2023-05-11T10:06:47.824Z,16.01
2023-05-11T10:09:09.277Z,16.16
2023-05-11T10:10:13.323Z,16.10
2023-05-11T10:11:15.765Z,16.11
2023-05-11T10:12:22.185Z,16.12
2023-05-11T10:13:25.630Z,16.12
2023-05-11T10:14:29.994Z,16.13
2023-05-11T10:15:34.821Z,16.17
2023-05-11T10:16:39.128Z,16.20
2023-05-11T10:17:42.343Z,16.21
2023-05-11T10:18:45.680Z,16.21
2023-05-11T10:19:48.626Z,16.21
2023-05-11T10:20:51.143Z,16.21
2023-05-11T10:21:55.846Z,16.21
2023-05-11T10:22:58.562Z,16.24
2023-05-11T10:24:02.421Z,16.31
2023-05-11T10:25:07.324Z,16.37
2023-05-11T10:26:10.598Z,16.44
2023-05-11T10:27:13.714Z,16.50
2023-05-11T10:28:16.443Z,16.57
2023-05-11T10:29:20.363Z,16.63
2023-05-11T10:30:23.224Z,16.67
2023-05-11T10:31:26.126Z,16.71
2023-05-11T10:32:30.628Z,16.76
2023-05-11T10:33:34.208Z,16.80
2023-05-11T10:34:36.720Z,16.84
2023-05-11T10:35:39.612Z,16.89
2023-05-11T10:36:42.282Z,16.95
2023-05-11T10:37:46.822Z,16.98
2023-05-11T10:38:49.263Z,17.06
2023-05-11T10:39:51.793Z,17.09
2023-05-11T10:40:58.389Z,17.12
2023-05-11T10:42:27.047Z,17.17
2023-05-11T10:43:41.894Z,17.21
2023-05-11T10:44:47.694Z,17.26
2023-05-11T10:46:30.186Z,17.28
2023-05-11T10:47:43.978Z,17.28
2023-05-11T10:49:07.229Z,17.26
2023-05-11T10:50:19.822Z,17.23
2023-05-11T10:51:45.792Z,17.16
2023-05-11T10:53:01.032Z,17.13
2023-05-11T10:54:12.700Z,17.07
2023-05-11T10:55:36.448Z,16.99
2023-05-11T10:57:09.612Z,16.92
2023-05-11T10:58:15.496Z,16.87
2023-05-11T10:59:55.855Z,16.78
2023-05-11T11:01:01.955Z,16.74
2023-05-11T11:02:05.594Z,16.70
2023-05-11T11:03:11.638Z,16.67
2023-05-11T11:04:13.970Z,16.68
2023-05-11T11:05:33.747Z,16.70
2023-05-11T11:06:38.734Z,16.73
2023-05-11T11:08:01.723Z,16.79
2023-05-11T11:09:06.372Z,16.83
2023-05-11T11:10:12.180Z,16.87
2023-05-11T11:12:42.114Z,17.09
2023-05-11T11:13:58.936Z,17.04
2023-05-11T11:15:03.832Z,17.09
2023-05-11T11:16:08.220Z,17.17
2023-05-11T11:17:19.851Z,17.22
2023-05-11T11:18:30.554Z,17.26
2023-05-11T11:19:35.399Z,17.26
2023-05-11T11:22:00.482Z,17.42
2023-05-11T11:23:02.929Z,17.28
2023-05-11T11:24:05.847Z,17.26
2023-05-11T11:25:10.002Z,17.24
2023-05-11T11:26:14.745Z,17.20
2023-05-11T11:27:17.083Z,17.17
2023-05-11T11:28:21.286Z,17.17
2023-05-11T11:29:24.129Z,17.18
2023-05-11T11:30:30.223Z,17.20
2023-05-11T11:31:33.927Z,17.22
2023-05-11T11:32:36.316Z,17.24
2023-05-11T11:33:39.306Z,17.25
2023-05-11T11:34:41.539Z,17.25
2023-05-11T11:35:45.665Z,17.23
2023-05-11T11:37:01.415Z,17.22
2023-05-11T11:38:03.826Z,17.21
2023-05-11T11:39:07.404Z,17.18
2023-05-11T11:40:15.348Z,17.15
2023-05-11T11:41:18.416Z,17.11
2023-05-11T11:42:35.629Z,17.10
2023-05-11T11:43:44.337Z,17.09
2023-05-11T11:44:46.679Z,17.04
2023-05-11T11:47:22.836Z,17.12
2023-05-11T11:48:36.996Z,16.97
2023-05-11T11:49:44.396Z,16.99
2023-05-11T11:50:48.628Z,17.02
2023-05-11T11:51:50.912Z,17.06
2023-05-11T11:52:53.224Z,17.08
2023-05-11T11:54:00.499Z,17.13
2023-05-11T11:55:03.520Z,17.17
2023-05-11T11:56:09.737Z,17.23
2023-05-11T11:58:49.099Z,17.50
2023-05-11T11:59:52.628Z,17.43
2023-05-11T12:00:55.087Z,17.48
2023-05-11T12:01:59.250Z,17.52
2023-05-11T12:03:03.666Z,17.60
2023-05-11T12:04:19.007Z,17.65
2023-05-11T12:05:24.440Z,17.69
2023-05-11T12:06:30.713Z,17.76
2023-05-11T12:07:33.561Z,17.82
2023-05-11T12:08:37.680Z,17.84
2023-05-11T12:09:40.220Z,17.86
2023-05-11T12:10:43.466Z,17.86
2023-05-11T12:11:46.496Z,17.84
2023-05-11T12:14:01.952Z,17.89
2023-05-11T12:15:05.448Z,17.78
2023-05-11T12:16:12.697Z,17.78
2023-05-11T12:17:19.188Z,17.81
2023-05-11T12:18:22.423Z,17.81
2023-05-11T12:19:24.810Z,17.86
2023-05-11T12:20:26.986Z,17.90
2023-05-11T12:21:31.676Z,17.91
2023-05-11T12:22:35.869Z,17.92
2023-05-11T12:23:38.197Z,17.91
2023-05-11T12:24:40.757Z,17.91
2023-05-11T12:25:43.509Z,17.87
2023-05-11T12:26:45.643Z,17.92
2023-05-11T12:27:54.055Z,17.91
2023-05-11T12:29:13.969Z,17.91
2023-05-11T12:30:20.843Z,17.93
2023-05-11T12:31:23.125Z,17.95
2023-05-11T12:32:27.855Z,17.98
2023-05-11T12:33:30.357Z,18.02
2023-05-11T12:34:32.773Z,18.05
2023-05-11T12:35:35.057Z,18.11
2023-05-11T12:36:37.334Z,18.16
2023-05-11T12:37:43.305Z,18.21
2023-05-11T12:38:46.737Z,18.25
2023-05-11T12:39:53.828Z,18.33
2023-05-11T12:40:56.113Z,18.38
2023-05-11T12:41:58.836Z,18.43
2023-05-11T12:43:01.122Z,18.48
2023-05-11T12:44:03.516Z,18.49
2023-05-11T12:45:07.248Z,18.52
2023-05-11T12:46:10.111Z,18.56
2023-05-11T12:47:12.758Z,18.55
2023-05-11T12:48:15.468Z,18.52
2023-05-11T12:49:24.747Z,18.49
2023-05-11T12:50:24.575Z,18.42
2023-05-11T12:53:14.869Z,18.50
2023-05-11T12:55:42.191Z,18.50
2023-05-11T12:58:14.500Z,18.46
2023-05-11T12:59:25.828Z,18.36
2023-05-11T13:00:29.098Z,18.36
2023-05-11T13:01:31.409Z,18.33
2023-05-11T13:02:33.937Z,18.33
2023-05-11T13:03:36.615Z,18.33
2023-05-11T13:04:40.615Z,18.32
2023-05-11T13:05:42.924Z,18.30
2023-05-11T13:06:46.090Z,18.29
2023-05-11T13:07:56.767Z,18.25
2023-05-11T13:08:58.993Z,18.21
2023-05-11T13:10:01.339Z,18.20
2023-05-11T13:12:33.869Z,18.21
2023-05-11T13:13:36.274Z,18.00
2023-05-11T13:14:39.511Z,17.91
2023-05-11T13:15:51.262Z,17.82
2023-05-11T13:16:53.517Z,17.71
2023-05-11T13:19:13.259Z,17.66
2023-05-11T13:20:32.097Z,17.49
2023-05-11T13:21:34.343Z,17.49
2023-05-11T13:22:37.118Z,17.47
2023-05-11T13:23:39.297Z,17.45
2023-05-11T13:24:41.517Z,17.46
2023-05-11T13:25:50.498Z,17.47
2023-05-11T13:26:53.504Z,17.50
2023-05-11T13:27:55.754Z,17.50
2023-05-11T13:29:09.496Z,17.54
2023-05-11T13:30:03.367Z,17.53
2023-05-11T13:31:05.730Z,17.54
2023-05-11T13:32:08.005Z,17.54
2023-05-11T13:33:10.370Z,17.54
2023-05-11T13:34:12.698Z,17.55
2023-05-11T13:35:15.984Z,17.53
2023-05-11T13:36:19.176Z,17.53
2023-05-11T13:37:21.372Z,17.53
2023-05-11T13:38:23.529Z,17.52
2023-05-11T13:39:25.526Z,17.50
2023-05-11T13:40:28.657Z,17.46
2023-05-11T13:41:31.533Z,17.41
2023-05-11T13:42:33.903Z,17.36
2023-05-11T13:43:36.465Z,17.31
2023-05-11T13:44:38.654Z,17.27
2023-05-11T13:45:41.540Z,17.26
2023-05-11T13:46:44.045Z,17.27
2023-05-11T13:47:46.826Z,17.26
2023-05-11T13:48:49.233Z,17.26
2023-05-11T13:49:51.395Z,17.27
2023-05-11T13:50:53.705Z,17.29
2023-05-11T13:51:55.882Z,17.35
2023-05-11T13:52:58.458Z,17.38
2023-05-11T13:54:01.377Z,17.42
2023-05-11T13:55:04.136Z,17.45
2023-05-11T13:56:07.144Z,17.49
2023-05-11T13:57:09.611Z,17.54
2023-05-11T13:58:11.860Z,17.54
2023-05-11T13:59:14.010Z,17.55
2023-05-11T14:00:17.924Z,17.52
2023-05-11T14:01:20.811Z,17.51
2023-05-11T14:02:23.177Z,17.49
2023-05-11T14:03:26.584Z,17.50
2023-05-11T14:04:29.251Z,17.50
2023-05-11T14:05:32.578Z,17.52
2023-05-11T14:06:35.355Z,17.53
2023-05-11T14:07:47.140Z,17.53
2023-05-11T14:08:41.833Z,17.52
2023-05-11T14:09:43.981Z,17.50
2023-05-11T14:10:46.275Z,17.48
2023-05-11T14:11:48.452Z,17.48
2023-05-11T14:12:51.021Z,17.51
2023-05-11T14:13:53.356Z,17.50
2023-05-11T14:14:55.390Z,17.54
2023-05-11T14:15:57.596Z,17.56
2023-05-11T14:16:59.755Z,17.56
2023-05-11T14:18:02.263Z,17.58
2023-05-11T14:19:04.672Z,17.59
2023-05-11T14:20:08.276Z,17.61
2023-05-11T14:21:10.584Z,17.58
2023-05-11T14:22:12.782Z,17.58
2023-05-11T14:23:15.899Z,17.59
2023-05-11T14:24:18.683Z,17.55
2023-05-11T14:25:21.360Z,17.55
2023-05-11T14:26:23.779Z,17.52
2023-05-11T14:27:26.093Z,17.52
2023-05-11T14:28:28.179Z,17.53
2023-05-11T14:29:30.457Z,17.51
2023-05-11T14:30:32.623Z,17.45
2023-05-11T14:31:35.440Z,17.46
2023-05-11T14:32:37.675Z,17.47
2023-05-11T14:33:39.972Z,17.46
2023-05-11T14:34:42.841Z,17.46
2023-05-11T14:35:47.639Z,17.45
2023-05-11T14:36:50.079Z,17.47